Pagrindinis puslapis
METAR-TAF:

METAR-TAF

Oro uostai :

Tirgu Murešas, Rumunija

platuma: 46-32N, ilguma: 024-32E, Aukštis: 308 m

Dabartinis oras

Ataskaita buvo paskelbta 17 minutes, ne 07:00 UTC
Vėjas 5 kt iš Rytų/Šiaurės Rytų
Temperatūra 1°C
Drėgmė 93%
Slėgis 1007 hPa
Matomumas: 8000 m

METAR: LRTM 280700Z 07005KT 8000 NSC 01/M00 Q1007

Laikas: 09:17 (07:17 UTC)

Prognozė

Ataskaita buvo paskelbta 2 valandos ir 17 minutes, ne 05:00 UTC
Prognozė galioja nuo 28 metu 06 UTC su 28 metu 15 UTC
Vėjas 4 kt nuo kintamojo kryptimis
Matomumas 10 km arba daugiau
nėra debesų žemiau 1500 m ir nėra kamuolinių lietaus debesų
Tapsmas
nuo 28 metu 08 UTC su 28 metu 10 UTC
Vėjas 12 kt iš Pietryčių
Matomumas: 5000 m
Su prošvaistėmis ne aukštis 1500 ft
Apsiniaukę ne aukštis 4000 ft
lietus
Tikimybė 30% :
Laikinai
nuo 28 metu 10 UTC su 28 metu 12 UTC
Matomumas: 3000 m
Su prošvaistėmis ne aukštis 1000 ft
Apsiniaukę ne aukštis 4000 ft
lietus, sniegas

TAF: LRTM 280500Z 2806/2815 VRB04KT CAVOK BECMG 2808/2810 14012KT 5000 -RA BKN015 OVC040 PROB30 TEMPO 2810/2812 3000 -RASN BKN010 OVC040

Orai ataskaitas ir orų prognozės (METAR, TAF).

turimą stotys yra geltonos ir raudonos taškus žemėlapyje.

Perkelti pele per norėdami pamatyti stoties vardą.

Tada spustelėkite, norėdami matyti oro stebėjimo ir prognozės.

Norėdami pakeisti žemėlapį: spustelėkite ant žalios mygtukų su juodo kryžiaus žemyn,; žalią mygtuką su brūkšneliu, jei norite nutolinti; arba žalių rodyklių gretimoms žemėlapius.


METAR-TAF: